sensor_id;sensor_type;location;lat;lon;timestamp;temperature;humidity
15947;DHT22;8072;52.554;7.966;2022-12-18T00:01:18;-6.30;99.90
15947;DHT22;8072;52.554;7.966;2022-12-18T00:03:45;-6.30;99.90
15947;DHT22;8072;52.554;7.966;2022-12-18T00:06:11;-6.30;99.90
15947;DHT22;8072;52.554;7.966;2022-12-18T00:08:39;-6.30;99.90
15947;DHT22;8072;52.554;7.966;2022-12-18T00:11:07;-6.30;99.90
15947;DHT22;8072;52.554;7.966;2022-12-18T00:13:33;-6.40;99.90
15947;DHT22;8072;52.554;7.966;2022-12-18T00:16:25;-6.30;99.90
15947;DHT22;8072;52.554;7.966;2022-12-18T00:18:53;-6.40;99.90
15947;DHT22;8072;52.554;7.966;2022-12-18T00:21:20;-6.40;99.90
15947;DHT22;8072;52.554;7.966;2022-12-18T00:23:47;-6.40;99.90
15947;DHT22;8072;52.554;7.966;2022-12-18T00:26:19;-6.50;99.90
15947;DHT22;8072;52.554;7.966;2022-12-18T00:28:45;-6.50;99.90
15947;DHT22;8072;52.554;7.966;2022-12-18T00:31:14;-6.60;99.90
15947;DHT22;8072;52.554;7.966;2022-12-18T00:33:40;-6.60;99.90
15947;DHT22;8072;52.554;7.966;2022-12-18T00:36:09;-6.60;99.90
15947;DHT22;8072;52.554;7.966;2022-12-18T00:38:36;-6.60;99.90
15947;DHT22;8072;52.554;7.966;2022-12-18T00:41:04;-6.70;99.90
15947;DHT22;8072;52.554;7.966;2022-12-18T00:43:30;-6.70;99.90
15947;DHT22;8072;52.554;7.966;2022-12-18T00:45:55;-6.70;99.90
15947;DHT22;8072;52.554;7.966;2022-12-18T00:48:21;-6.70;99.90
15947;DHT22;8072;52.554;7.966;2022-12-18T00:50:48;-6.70;99.90
15947;DHT22;8072;52.554;7.966;2022-12-18T00:53:14;-6.70;99.90
15947;DHT22;8072;52.554;7.966;2022-12-18T00:55:41;-6.70;99.90
15947;DHT22;8072;52.554;7.966;2022-12-18T00:58:08;-6.60;99.90
15947;DHT22;8072;52.554;7.966;2022-12-18T01:00:35;-6.70;99.90
15947;DHT22;8072;52.554;7.966;2022-12-18T01:03:02;-6.70;99.90
15947;DHT22;8072;52.554;7.966;2022-12-18T01:05:28;-6.60;99.90
15947;DHT22;8072;52.554;7.966;2022-12-18T01:07:55;-6.60;99.90
15947;DHT22;8072;52.554;7.966;2022-12-18T01:10:22;-6.60;99.90
15947;DHT22;8072;52.554;7.966;2022-12-18T01:12:48;-6.60;99.90
15947;DHT22;8072;52.554;7.966;2022-12-18T01:15:15;-6.60;99.90
15947;DHT22;8072;52.554;7.966;2022-12-18T01:17:41;-6.60;99.90
15947;DHT22;8072;52.554;7.966;2022-12-18T01:20:08;-6.60;99.90
15947;DHT22;8072;52.554;7.966;2022-12-18T01:22:35;-6.60;99.90
15947;DHT22;8072;52.554;7.966;2022-12-18T01:25:01;-6.60;99.90
15947;DHT22;8072;52.554;7.966;2022-12-18T01:27:27;-6.60;99.90
15947;DHT22;8072;52.554;7.966;2022-12-18T01:29:52;-6.60;99.90
15947;DHT22;8072;52.554;7.966;2022-12-18T01:32:18;-6.60;99.90
15947;DHT22;8072;52.554;7.966;2022-12-18T01:34:45;-6.60;99.90
15947;DHT22;8072;52.554;7.966;2022-12-18T01:37:11;-6.60;99.90
15947;DHT22;8072;52.554;7.966;2022-12-18T01:39:37;-6.60;99.90
15947;DHT22;8072;52.554;7.966;2022-12-18T01:42:03;-6.60;99.90
15947;DHT22;8072;52.554;7.966;2022-12-18T01:47:33;-6.60;99.90
15947;DHT22;8072;52.554;7.966;2022-12-18T01:52:32;-6.60;99.90
15947;DHT22;8072;52.554;7.966;2022-12-18T01:54:59;-6.60;99.90
15947;DHT22;8072;52.554;7.966;2022-12-18T01:57:26;-6.60;99.90
15947;DHT22;8072;52.554;7.966;2022-12-18T01:59:53;-6.60;99.90
15947;DHT22;8072;52.554;7.966;2022-12-18T02:02:21;-6.70;99.90
15947;DHT22;8072;52.554;7.966;2022-12-18T02:04:47;-6.70;99.90
15947;DHT22;8072;52.554;7.966;2022-12-18T02:17:57;-6.90;99.90
15947;DHT22;8072;52.554;7.966;2022-12-18T02:20:36;-6.80;99.90
15947;DHT22;8072;52.554;7.966;2022-12-18T02:26:04;-6.90;99.90
15947;DHT22;8072;52.554;7.966;2022-12-18T02:28:36;-6.90;99.90
15947;DHT22;8072;52.554;7.966;2022-12-18T02:31:05;-6.90;99.90
15947;DHT22;8072;52.554;7.966;2022-12-18T02:33:33;-6.90;99.90
15947;DHT22;8072;52.554;7.966;2022-12-18T02:36:02;-6.90;99.90
15947;DHT22;8072;52.554;7.966;2022-12-18T02:38:29;-6.90;99.90
15947;DHT22;8072;52.554;7.966;2022-12-18T02:40:57;-6.90;99.90
15947;DHT22;8072;52.554;7.966;2022-12-18T02:43:23;-6.90;99.90
15947;DHT22;8072;52.554;7.966;2022-12-18T02:45:56;-6.90;99.90
15947;DHT22;8072;52.554;7.966;2022-12-18T02:48:33;-7.00;99.90
15947;DHT22;8072;52.554;7.966;2022-12-18T02:51:23;-7.00;99.90
15947;DHT22;8072;52.554;7.966;2022-12-18T02:54:32;-7.00;99.90
15947;DHT22;8072;52.554;7.966;2022-12-18T03:00:04;-7.00;99.90
15947;DHT22;8072;52.554;7.966;2022-12-18T03:02:34;-7.00;99.90
15947;DHT22;8072;52.554;7.966;2022-12-18T03:05:24;-7.00;99.90
15947;DHT22;8072;52.554;7.966;2022-12-18T03:08:28;-7.10;99.90
15947;DHT22;8072;52.554;7.966;2022-12-18T03:11:06;-7.00;99.90
15947;DHT22;8072;52.554;7.966;2022-12-18T03:13:43;-7.00;99.90
15947;DHT22;8072;52.554;7.966;2022-12-18T03:16:14;-7.00;99.90
15947;DHT22;8072;52.554;7.966;2022-12-18T03:18:48;-7.00;99.90
15947;DHT22;8072;52.554;7.966;2022-12-18T03:21:19;-7.00;99.90
15947;DHT22;8072;52.554;7.966;2022-12-18T03:23:49;-7.10;99.90
15947;DHT22;8072;52.554;7.966;2022-12-18T03:26:19;-7.10;99.90
15947;DHT22;8072;52.554;7.966;2022-12-18T03:28:51;-7.10;99.90
15947;DHT22;8072;52.554;7.966;2022-12-18T03:31:19;-7.10;99.90
15947;DHT22;8072;52.554;7.966;2022-12-18T03:33:54;-7.20;99.90
15947;DHT22;8072;52.554;7.966;2022-12-18T03:36:20;-7.20;99.90
15947;DHT22;8072;52.554;7.966;2022-12-18T03:38:47;-7.30;99.90
15947;DHT22;8072;52.554;7.966;2022-12-18T03:41:24;-7.30;99.90
15947;DHT22;8072;52.554;7.966;2022-12-18T03:46:47;-7.40;99.90
15947;DHT22;8072;52.554;7.966;2022-12-18T03:49:32;-7.40;99.90
15947;DHT22;8072;52.554;7.966;2022-12-18T03:52:04;-7.40;99.90
15947;DHT22;8072;52.554;7.966;2022-12-18T03:54:32;-7.50;99.90
15947;DHT22;8072;52.554;7.966;2022-12-18T03:57:04;-7.50;99.90
15947;DHT22;8072;52.554;7.966;2022-12-18T03:59:33;-7.50;99.90
15947;DHT22;8072;52.554;7.966;2022-12-18T04:02:01;-7.50;99.90
15947;DHT22;8072;52.554;7.966;2022-12-18T04:04:28;-7.50;99.90
15947;DHT22;8072;52.554;7.966;2022-12-18T04:06:55;-7.70;99.90
15947;DHT22;8072;52.554;7.966;2022-12-18T04:09:21;-7.80;99.90
15947;DHT22;8072;52.554;7.966;2022-12-18T04:11:47;-7.90;99.90
15947;DHT22;8072;52.554;7.966;2022-12-18T04:14:13;-7.90;99.90
15947;DHT22;8072;52.554;7.966;2022-12-18T04:16:39;-7.90;99.90
15947;DHT22;8072;52.554;7.966;2022-12-18T04:19:05;-7.90;99.90
15947;DHT22;8072;52.554;7.966;2022-12-18T04:21:31;-7.90;99.90
15947;DHT22;8072;52.554;7.966;2022-12-18T04:23:58;-7.80;99.90
15947;DHT22;8072;52.554;7.966;2022-12-18T04:26:23;-7.70;99.90
15947;DHT22;8072;52.554;7.966;2022-12-18T04:28:49;-7.70;99.90
15947;DHT22;8072;52.554;7.966;2022-12-18T04:31:15;-7.60;99.90
15947;DHT22;8072;52.554;7.966;2022-12-18T04:33:41;-7.60;99.90
15947;DHT22;8072;52.554;7.966;2022-12-18T04:36:07;-7.50;99.90
15947;DHT22;8072;52.554;7.966;2022-12-18T04:38:33;-7.50;99.90
15947;DHT22;8072;52.554;7.966;2022-12-18T04:41:00;-7.50;99.90
15947;DHT22;8072;52.554;7.966;2022-12-18T04:43:26;-7.40;99.90
15947;DHT22;8072;52.554;7.966;2022-12-18T04:45:52;-7.40;99.90
15947;DHT22;8072;52.554;7.966;2022-12-18T04:48:18;-7.40;99.90
15947;DHT22;8072;52.554;7.966;2022-12-18T04:50:46;-7.40;99.90
15947;DHT22;8072;52.554;7.966;2022-12-18T04:53:12;-7.30;99.90
15947;DHT22;8072;52.554;7.966;2022-12-18T04:55:38;-7.30;99.90
15947;DHT22;8072;52.554;7.966;2022-12-18T04:58:04;-7.30;99.90
15947;DHT22;8072;52.554;7.966;2022-12-18T05:00:31;-7.30;99.90
15947;DHT22;8072;52.554;7.966;2022-12-18T05:02:57;-7.30;99.90
15947;DHT22;8072;52.554;7.966;2022-12-18T05:05:26;-7.30;99.90
15947;DHT22;8072;52.554;7.966;2022-12-18T05:07:53;-7.30;99.90
15947;DHT22;8072;52.554;7.966;2022-12-18T05:10:19;-7.30;99.90
15947;DHT22;8072;52.554;7.966;2022-12-18T05:12:45;-7.20;99.90
15947;DHT22;8072;52.554;7.966;2022-12-18T05:15:30;-7.30;99.90
15947;DHT22;8072;52.554;7.966;2022-12-18T05:17:58;-7.20;99.90
15947;DHT22;8072;52.554;7.966;2022-12-18T05:20:24;-7.20;99.90
15947;DHT22;8072;52.554;7.966;2022-12-18T05:22:51;-7.20;99.90
15947;DHT22;8072;52.554;7.966;2022-12-18T05:25:18;-7.20;99.90
15947;DHT22;8072;52.554;7.966;2022-12-18T05:27:44;-7.20;99.90
15947;DHT22;8072;52.554;7.966;2022-12-18T05:30:11;-7.20;99.90
15947;DHT22;8072;52.554;7.966;2022-12-18T05:32:39;-7.20;99.90
15947;DHT22;8072;52.554;7.966;2022-12-18T05:35:06;-7.10;99.90
15947;DHT22;8072;52.554;7.966;2022-12-18T05:37:33;-7.20;99.90
15947;DHT22;8072;52.554;7.966;2022-12-18T05:39:59;-7.20;99.90
15947;DHT22;8072;52.554;7.966;2022-12-18T05:42:25;-7.20;99.90
15947;DHT22;8072;52.554;7.966;2022-12-18T05:44:52;-7.20;99.90
15947;DHT22;8072;52.554;7.966;2022-12-18T05:47:17;-7.20;99.90
15947;DHT22;8072;52.554;7.966;2022-12-18T05:49:43;-7.20;99.90
15947;DHT22;8072;52.554;7.966;2022-12-18T05:52:09;-7.20;99.90
15947;DHT22;8072;52.554;7.966;2022-12-18T05:54:35;-7.20;99.90
15947;DHT22;8072;52.554;7.966;2022-12-18T05:57:01;-7.30;99.90
15947;DHT22;8072;52.554;7.966;2022-12-18T05:59:26;-7.30;99.90
15947;DHT22;8072;52.554;7.966;2022-12-18T06:01:52;-7.30;99.90
15947;DHT22;8072;52.554;7.966;2022-12-18T06:04:18;-7.30;99.90
15947;DHT22;8072;52.554;7.966;2022-12-18T06:06:43;-7.30;99.90
15947;DHT22;8072;52.554;7.966;2022-12-18T06:09:09;-7.30;99.90
15947;DHT22;8072;52.554;7.966;2022-12-18T06:11:36;-7.30;99.90
15947;DHT22;8072;52.554;7.966;2022-12-18T06:14:04;-7.30;99.90
15947;DHT22;8072;52.554;7.966;2022-12-18T06:16:30;-7.30;99.90
15947;DHT22;8072;52.554;7.966;2022-12-18T06:19:01;-7.20;99.90
15947;DHT22;8072;52.554;7.966;2022-12-18T06:21:28;-7.30;99.90
15947;DHT22;8072;52.554;7.966;2022-12-18T06:23:54;-7.20;99.90
15947;DHT22;8072;52.554;7.966;2022-12-18T06:26:20;-7.30;99.90
15947;DHT22;8072;52.554;7.966;2022-12-18T06:28:46;-7.20;99.90
15947;DHT22;8072;52.554;7.966;2022-12-18T06:31:12;-7.20;99.90
15947;DHT22;8072;52.554;7.966;2022-12-18T06:33:38;-7.20;99.90
15947;DHT22;8072;52.554;7.966;2022-12-18T06:36:07;-7.20;99.90
15947;DHT22;8072;52.554;7.966;2022-12-18T06:38:35;-7.10;99.90
15947;DHT22;8072;52.554;7.966;2022-12-18T06:41:05;-7.20;99.90
15947;DHT22;8072;52.554;7.966;2022-12-18T06:43:31;-7.10;99.90
15947;DHT22;8072;52.554;7.966;2022-12-18T06:46:00;-7.20;99.90
15947;DHT22;8072;52.554;7.966;2022-12-18T06:48:27;-7.10;99.90
15947;DHT22;8072;52.554;7.966;2022-12-18T06:50:54;-7.10;99.90
15947;DHT22;8072;52.554;7.966;2022-12-18T06:53:20;-7.10;99.90
15947;DHT22;8072;52.554;7.966;2022-12-18T06:55:45;-7.10;99.90
15947;DHT22;8072;52.554;7.966;2022-12-18T06:58:11;-7.10;99.90
15947;DHT22;8072;52.554;7.966;2022-12-18T07:00:37;-7.10;99.90
15947;DHT22;8072;52.554;7.966;2022-12-18T07:03:03;-7.10;99.90
15947;DHT22;8072;52.554;7.966;2022-12-18T07:05:29;-7.10;99.90
15947;DHT22;8072;52.554;7.966;2022-12-18T07:07:54;-7.10;99.90
15947;DHT22;8072;52.554;7.966;2022-12-18T07:10:22;-7.10;99.90
15947;DHT22;8072;52.554;7.966;2022-12-18T07:12:48;-7.10;99.90
15947;DHT22;8072;52.554;7.966;2022-12-18T07:15:13;-7.10;99.90
15947;DHT22;8072;52.554;7.966;2022-12-18T07:17:39;-7.00;99.90
15947;DHT22;8072;52.554;7.966;2022-12-18T07:20:05;-7.10;99.90
15947;DHT22;8072;52.554;7.966;2022-12-18T07:22:31;-7.10;99.90
15947;DHT22;8072;52.554;7.966;2022-12-18T07:24:57;-7.10;99.90
15947;DHT22;8072;52.554;7.966;2022-12-18T07:27:23;-7.10;99.90
15947;DHT22;8072;52.554;7.966;2022-12-18T07:29:48;-7.10;99.90
15947;DHT22;8072;52.554;7.966;2022-12-18T07:32:14;-7.10;99.90
15947;DHT22;8072;52.554;7.966;2022-12-18T07:34:40;-7.10;99.90
15947;DHT22;8072;52.554;7.966;2022-12-18T07:37:06;-7.10;99.90
15947;DHT22;8072;52.554;7.966;2022-12-18T07:39:32;-7.10;99.90
15947;DHT22;8072;52.554;7.966;2022-12-18T07:41:57;-7.10;99.90
15947;DHT22;8072;52.554;7.966;2022-12-18T07:44:41;-7.10;99.90
15947;DHT22;8072;52.554;7.966;2022-12-18T07:47:08;-7.10;99.90
15947;DHT22;8072;52.554;7.966;2022-12-18T07:49:33;-7.10;99.90
15947;DHT22;8072;52.554;7.966;2022-12-18T07:51:59;-7.10;99.90
15947;DHT22;8072;52.554;7.966;2022-12-18T07:54:25;-7.10;99.90
15947;DHT22;8072;52.554;7.966;2022-12-18T07:56:51;-7.00;99.90
15947;DHT22;8072;52.554;7.966;2022-12-18T07:59:17;-7.00;99.90
15947;DHT22;8072;52.554;7.966;2022-12-18T08:01:44;-7.00;99.90
15947;DHT22;8072;52.554;7.966;2022-12-18T08:04:10;-7.00;99.90
15947;DHT22;8072;52.554;7.966;2022-12-18T08:06:36;-7.00;99.90
15947;DHT22;8072;52.554;7.966;2022-12-18T08:09:02;-7.00;99.90
15947;DHT22;8072;52.554;7.966;2022-12-18T08:11:28;-6.90;99.90
15947;DHT22;8072;52.554;7.966;2022-12-18T08:13:55;-6.90;99.90
15947;DHT22;8072;52.554;7.966;2022-12-18T08:16:21;-6.90;99.90
15947;DHT22;8072;52.554;7.966;2022-12-18T08:18:48;-6.80;99.90
15947;DHT22;8072;52.554;7.966;2022-12-18T08:23:41;-6.70;99.90
15947;DHT22;8072;52.554;7.966;2022-12-18T08:26:08;-6.70;99.90
15947;DHT22;8072;52.554;7.966;2022-12-18T08:28:34;-6.70;99.90
15947;DHT22;8072;52.554;7.966;2022-12-18T08:31:00;-6.70;99.90
15947;DHT22;8072;52.554;7.966;2022-12-18T08:33:26;-6.60;99.90
15947;DHT22;8072;52.554;7.966;2022-12-18T08:35:52;-6.50;99.90
15947;DHT22;8072;52.554;7.966;2022-12-18T08:38:18;-6.50;99.90
15947;DHT22;8072;52.554;7.966;2022-12-18T08:40:44;-6.50;99.90
15947;DHT22;8072;52.554;7.966;2022-12-18T08:43:10;-6.40;99.90
15947;DHT22;8072;52.554;7.966;2022-12-18T08:45:55;-6.30;99.90
15947;DHT22;8072;52.554;7.966;2022-12-18T08:48:21;-6.20;99.90
15947;DHT22;8072;52.554;7.966;2022-12-18T08:50:54;-6.10;99.90
15947;DHT22;8072;52.554;7.966;2022-12-18T08:53:20;-6.10;99.90
15947;DHT22;8072;52.554;7.966;2022-12-18T08:55:46;-6.00;99.90
15947;DHT22;8072;52.554;7.966;2022-12-18T08:58:12;-5.80;99.90
15947;DHT22;8072;52.554;7.966;2022-12-18T09:00:37;-5.80;99.90
15947;DHT22;8072;52.554;7.966;2022-12-18T09:03:03;-5.70;99.90
15947;DHT22;8072;52.554;7.966;2022-12-18T09:05:30;-5.60;99.90
15947;DHT22;8072;52.554;7.966;2022-12-18T09:07:56;-5.50;99.90
15947;DHT22;8072;52.554;7.966;2022-12-18T09:10:22;-5.50;99.90
15947;DHT22;8072;52.554;7.966;2022-12-18T09:12:48;-5.40;99.90
15947;DHT22;8072;52.554;7.966;2022-12-18T09:15:14;-5.40;99.90
15947;DHT22;8072;52.554;7.966;2022-12-18T09:17:40;-5.30;99.90
15947;DHT22;8072;52.554;7.966;2022-12-18T09:20:06;-5.30;99.90
15947;DHT22;8072;52.554;7.966;2022-12-18T09:22:32;-5.30;99.90
15947;DHT22;8072;52.554;7.966;2022-12-18T09:24:58;-5.30;99.90
15947;DHT22;8072;52.554;7.966;2022-12-18T09:27:23;-5.20;99.90
15947;DHT22;8072;52.554;7.966;2022-12-18T09:29:49;-5.10;99.90
15947;DHT22;8072;52.554;7.966;2022-12-18T09:32:15;-5.10;99.90
15947;DHT22;8072;52.554;7.966;2022-12-18T09:34:40;-5.10;99.90
15947;DHT22;8072;52.554;7.966;2022-12-18T09:37:06;-5.00;99.90
15947;DHT22;8072;52.554;7.966;2022-12-18T09:39:32;-5.00;99.90
15947;DHT22;8072;52.554;7.966;2022-12-18T09:41:58;-4.90;99.90
15947;DHT22;8072;52.554;7.966;2022-12-18T09:44:30;-4.80;99.90
15947;DHT22;8072;52.554;7.966;2022-12-18T09:47:11;-4.70;99.90
15947;DHT22;8072;52.554;7.966;2022-12-18T09:49:45;-4.60;99.90
15947;DHT22;8072;52.554;7.966;2022-12-18T09:52:19;-4.50;99.90
15947;DHT22;8072;52.554;7.966;2022-12-18T09:54:52;-4.50;99.90
15947;DHT22;8072;52.554;7.966;2022-12-18T09:57:22;-4.40;99.90
15947;DHT22;8072;52.554;7.966;2022-12-18T10:02:34;-4.30;99.90
15947;DHT22;8072;52.554;7.966;2022-12-18T10:05:03;-4.20;99.90
15947;DHT22;8072;52.554;7.966;2022-12-18T10:07:44;-4.10;99.90
15947;DHT22;8072;52.554;7.966;2022-12-18T10:16:07;-3.80;99.90
15947;DHT22;8072;52.554;7.966;2022-12-18T10:21:32;-3.60;99.90
15947;DHT22;8072;52.554;7.966;2022-12-18T10:24:23;-3.50;99.90
15947;DHT22;8072;52.554;7.966;2022-12-18T10:26:49;-3.40;99.90
15947;DHT22;8072;52.554;7.966;2022-12-18T10:29:17;-3.30;99.90
15947;DHT22;8072;52.554;7.966;2022-12-18T10:31:43;-3.20;99.90
15947;DHT22;8072;52.554;7.966;2022-12-18T10:34:14;-3.00;99.90
15947;DHT22;8072;52.554;7.966;2022-12-18T10:36:39;-3.00;99.90
15947;DHT22;8072;52.554;7.966;2022-12-18T10:39:20;-2.90;99.90
15947;DHT22;8072;52.554;7.966;2022-12-18T10:41:48;-2.70;99.90
15947;DHT22;8072;52.554;7.966;2022-12-18T10:44:21;-2.50;99.90
15947;DHT22;8072;52.554;7.966;2022-12-18T10:46:54;-2.30;99.90
15947;DHT22;8072;52.554;7.966;2022-12-18T10:49:30;-2.20;99.90
15947;DHT22;8072;52.554;7.966;2022-12-18T10:55:03;-1.90;99.90
15947;DHT22;8072;52.554;7.966;2022-12-18T10:57:38;-1.90;99.90
15947;DHT22;8072;52.554;7.966;2022-12-18T11:00:30;-1.90;99.90
15947;DHT22;8072;52.554;7.966;2022-12-18T11:02:56;-2.00;99.90
15947;DHT22;8072;52.554;7.966;2022-12-18T11:05:34;-2.00;99.90
15947;DHT22;8072;52.554;7.966;2022-12-18T11:08:02;-2.10;99.90
15947;DHT22;8072;52.554;7.966;2022-12-18T11:10:35;-2.10;99.90
15947;DHT22;8072;52.554;7.966;2022-12-18T11:13:25;-2.10;99.90
15947;DHT22;8072;52.554;7.966;2022-12-18T11:15:52;-2.10;99.90
15947;DHT22;8072;52.554;7.966;2022-12-18T11:18:33;-2.10;99.90
15947;DHT22;8072;52.554;7.966;2022-12-18T11:21:11;-2.10;99.90
15947;DHT22;8072;52.554;7.966;2022-12-18T11:23:51;-2.10;99.90
15947;DHT22;8072;52.554;7.966;2022-12-18T11:26:17;-2.10;99.90
15947;DHT22;8072;52.554;7.966;2022-12-18T11:28:47;-2.10;99.90
15947;DHT22;8072;52.554;7.966;2022-12-18T11:36:42;-2.20;99.90
15947;DHT22;8072;52.554;7.966;2022-12-18T11:41:58;-2.10;99.90
15947;DHT22;8072;52.554;7.966;2022-12-18T11:47:52;-2.00;99.90
15947;DHT22;8072;52.554;7.966;2022-12-18T11:50:24;-2.00;99.90
15947;DHT22;8072;52.554;7.966;2022-12-18T11:52:50;-2.00;99.90
15947;DHT22;8072;52.554;7.966;2022-12-18T12:00:42;-2.00;99.90
15947;DHT22;8072;52.554;7.966;2022-12-18T12:22:11;-1.80;99.90
15947;DHT22;8072;52.554;7.966;2022-12-18T12:38:41;-1.60;99.90
15947;DHT22;8072;52.554;7.966;2022-12-18T12:41:13;-1.60;99.90
15947;DHT22;8072;52.554;7.966;2022-12-18T12:44:02;-1.50;99.90
15947;DHT22;8072;52.554;7.966;2022-12-18T12:46:32;-1.50;99.90
15947;DHT22;8072;52.554;7.966;2022-12-18T12:49:02;-1.50;99.90
15947;DHT22;8072;52.554;7.966;2022-12-18T12:51:35;-1.50;99.90
15947;DHT22;8072;52.554;7.966;2022-12-18T12:54:05;-1.50;99.90
15947;DHT22;8072;52.554;7.966;2022-12-18T13:02:23;-1.50;99.90
15947;DHT22;8072;52.554;7.966;2022-12-18T13:07:45;-1.50;99.90
15947;DHT22;8072;52.554;7.966;2022-12-18T13:10:22;-1.50;99.90
15947;DHT22;8072;52.554;7.966;2022-12-18T13:12:55;-1.50;99.90
15947;DHT22;8072;52.554;7.966;2022-12-18T13:17:48;-1.50;99.90
15947;DHT22;8072;52.554;7.966;2022-12-18T13:20:15;-1.40;99.90
15947;DHT22;8072;52.554;7.966;2022-12-18T13:22:46;-1.50;99.90
15947;DHT22;8072;52.554;7.966;2022-12-18T13:25:35;-1.40;99.90
15947;DHT22;8072;52.554;7.966;2022-12-18T13:28:08;-1.40;99.90
15947;DHT22;8072;52.554;7.966;2022-12-18T13:38:36;-1.20;99.90
15947;DHT22;8072;52.554;7.966;2022-12-18T13:41:24;-1.20;99.90
15947;DHT22;8072;52.554;7.966;2022-12-18T13:43:55;-1.10;99.90
15947;DHT22;8072;52.554;7.966;2022-12-18T13:46:42;-1.10;99.90
15947;DHT22;8072;52.554;7.966;2022-12-18T13:51:42;-1.00;99.90
15947;DHT22;8072;52.554;7.966;2022-12-18T13:56:45;-1.00;99.90
15947;DHT22;8072;52.554;7.966;2022-12-18T13:59:22;-1.00;99.90
15947;DHT22;8072;52.554;7.966;2022-12-18T14:01:56;-1.00;99.90
15947;DHT22;8072;52.554;7.966;2022-12-18T14:07:32;-1.00;99.90
15947;DHT22;8072;52.554;7.966;2022-12-18T14:09:44;-1.00;99.90
15947;DHT22;8072;52.554;7.966;2022-12-18T14:12:22;-1.00;99.90
15947;DHT22;8072;52.554;7.966;2022-12-18T14:18:09;-1.00;99.90
15947;DHT22;8072;52.554;7.966;2022-12-18T14:20:43;-1.00;99.90
15947;DHT22;8072;52.554;7.966;2022-12-18T14:23:45;-1.00;99.90
15947;DHT22;8072;52.554;7.966;2022-12-18T14:28:46;-1.00;99.90
15947;DHT22;8072;52.554;7.966;2022-12-18T14:31:20;-0.90;99.90
15947;DHT22;8072;52.554;7.966;2022-12-18T14:33:46;-0.90;99.90
15947;DHT22;8072;52.554;7.966;2022-12-18T14:36:25;-0.90;99.90
15947;DHT22;8072;52.554;7.966;2022-12-18T14:38:56;-0.90;99.90
15947;DHT22;8072;52.554;7.966;2022-12-18T14:41:23;-0.80;99.90
15947;DHT22;8072;52.554;7.966;2022-12-18T14:43:52;-0.90;99.90
15947;DHT22;8072;52.554;7.966;2022-12-18T14:46:41;-0.90;99.90
15947;DHT22;8072;52.554;7.966;2022-12-18T14:49:24;-0.90;99.90
15947;DHT22;8072;52.554;7.966;2022-12-18T14:51:56;-0.90;99.90
15947;DHT22;8072;52.554;7.966;2022-12-18T14:54:26;-0.90;99.90
15947;DHT22;8072;52.554;7.966;2022-12-18T14:57:03;-0.90;99.90
15947;DHT22;8072;52.554;7.966;2022-12-18T14:59:30;-0.90;99.90
15947;DHT22;8072;52.554;7.966;2022-12-18T15:02:24;-1.00;99.90
15947;DHT22;8072;52.554;7.966;2022-12-18T15:05:05;-1.00;99.90
15947;DHT22;8072;52.554;7.966;2022-12-18T15:07:50;-1.00;99.90
15947;DHT22;8072;52.554;7.966;2022-12-18T15:10:18;-1.00;99.90
15947;DHT22;8072;52.554;7.966;2022-12-18T15:20:40;-1.00;99.90
15947;DHT22;8072;52.554;7.966;2022-12-18T15:23:18;-1.00;99.90
15947;DHT22;8072;52.554;7.966;2022-12-18T15:25:46;-1.00;99.90
15947;DHT22;8072;52.554;7.966;2022-12-18T15:28:37;-0.90;99.90
15947;DHT22;8072;52.554;7.966;2022-12-18T15:33:41;-1.00;99.90
15947;DHT22;8072;52.554;7.966;2022-12-18T15:36:15;-0.90;99.90
15947;DHT22;8072;52.554;7.966;2022-12-18T15:38:45;-0.90;99.90
15947;DHT22;8072;52.554;7.966;2022-12-18T15:41:18;-0.90;99.90
15947;DHT22;8072;52.554;7.966;2022-12-18T15:43:44;-0.90;99.90
15947;DHT22;8072;52.554;7.966;2022-12-18T15:46:16;-0.80;99.90
15947;DHT22;8072;52.554;7.966;2022-12-18T15:48:53;-0.90;99.90
15947;DHT22;8072;52.554;7.966;2022-12-18T15:51:26;-0.90;99.90
15947;DHT22;8072;52.554;7.966;2022-12-18T15:53:55;-0.90;99.90
15947;DHT22;8072;52.554;7.966;2022-12-18T15:56:21;-0.90;99.90
15947;DHT22;8072;52.554;7.966;2022-12-18T15:59:17;-0.90;99.90
15947;DHT22;8072;52.554;7.966;2022-12-18T16:01:51;-0.80;99.90
15947;DHT22;8072;52.554;7.966;2022-12-18T16:04:21;-0.90;99.90
15947;DHT22;8072;52.554;7.966;2022-12-18T16:06:48;-0.90;99.90
15947;DHT22;8072;52.554;7.966;2022-12-18T16:09:14;-0.90;99.90
15947;DHT22;8072;52.554;7.966;2022-12-18T16:11:42;-0.90;99.90
15947;DHT22;8072;52.554;7.966;2022-12-18T16:16:40;-0.80;99.90
15947;DHT22;8072;52.554;7.966;2022-12-18T16:19:07;-0.80;99.90
15947;DHT22;8072;52.554;7.966;2022-12-18T16:21:33;-0.80;99.90
15947;DHT22;8072;52.554;7.966;2022-12-18T16:23:58;-0.80;99.90
15947;DHT22;8072;52.554;7.966;2022-12-18T16:26:24;-0.70;99.90
15947;DHT22;8072;52.554;7.966;2022-12-18T16:28:50;-0.70;99.90
15947;DHT22;8072;52.554;7.966;2022-12-18T16:31:15;-0.70;99.90
15947;DHT22;8072;52.554;7.966;2022-12-18T16:33:41;-0.70;99.90
15947;DHT22;8072;52.554;7.966;2022-12-18T16:36:07;-0.70;99.90
15947;DHT22;8072;52.554;7.966;2022-12-18T16:38:33;-0.70;99.90
15947;DHT22;8072;52.554;7.966;2022-12-18T16:40:59;-0.70;99.90
15947;DHT22;8072;52.554;7.966;2022-12-18T16:43:43;-0.60;99.90
15947;DHT22;8072;52.554;7.966;2022-12-18T16:46:09;-0.70;99.90
15947;DHT22;8072;52.554;7.966;2022-12-18T16:48:35;-0.70;99.90
15947;DHT22;8072;52.554;7.966;2022-12-18T16:51:02;-0.60;99.90
15947;DHT22;8072;52.554;7.966;2022-12-18T16:53:28;-0.60;99.90
15947;DHT22;8072;52.554;7.966;2022-12-18T16:55:55;-0.60;99.90
15947;DHT22;8072;52.554;7.966;2022-12-18T16:58:21;-0.60;99.90
15947;DHT22;8072;52.554;7.966;2022-12-18T17:00:46;-0.60;99.90
15947;DHT22;8072;52.554;7.966;2022-12-18T17:03:12;-0.60;99.90
15947;DHT22;8072;52.554;7.966;2022-12-18T17:05:38;-0.60;99.90
15947;DHT22;8072;52.554;7.966;2022-12-18T17:08:04;-0.60;99.90
15947;DHT22;8072;52.554;7.966;2022-12-18T17:10:30;-0.60;99.90
15947;DHT22;8072;52.554;7.966;2022-12-18T17:12:56;-0.60;99.90
15947;DHT22;8072;52.554;7.966;2022-12-18T17:15:22;-0.60;99.90
15947;DHT22;8072;52.554;7.966;2022-12-18T17:17:47;-0.60;99.90
15947;DHT22;8072;52.554;7.966;2022-12-18T17:20:13;-0.60;99.90
15947;DHT22;8072;52.554;7.966;2022-12-18T17:22:39;-0.60;99.90
15947;DHT22;8072;52.554;7.966;2022-12-18T17:25:05;-0.60;99.90
15947;DHT22;8072;52.554;7.966;2022-12-18T17:27:30;-0.60;99.90
15947;DHT22;8072;52.554;7.966;2022-12-18T17:29:56;-0.60;99.90
15947;DHT22;8072;52.554;7.966;2022-12-18T17:32:22;-0.60;99.90
15947;DHT22;8072;52.554;7.966;2022-12-18T17:34:48;-0.60;99.90
15947;DHT22;8072;52.554;7.966;2022-12-18T17:37:14;-0.60;99.90
15947;DHT22;8072;52.554;7.966;2022-12-18T17:39:40;-0.60;99.90
15947;DHT22;8072;52.554;7.966;2022-12-18T17:42:06;-0.60;99.90
15947;DHT22;8072;52.554;7.966;2022-12-18T17:44:35;-0.60;99.90
15947;DHT22;8072;52.554;7.966;2022-12-18T17:47:01;-0.60;99.90
15947;DHT22;8072;52.554;7.966;2022-12-18T17:49:27;-0.60;99.90
15947;DHT22;8072;52.554;7.966;2022-12-18T17:51:52;-0.60;99.90
15947;DHT22;8072;52.554;7.966;2022-12-18T17:54:18;-0.60;99.90
15947;DHT22;8072;52.554;7.966;2022-12-18T17:56:44;-0.50;99.90
15947;DHT22;8072;52.554;7.966;2022-12-18T17:59:10;-0.60;99.90
15947;DHT22;8072;52.554;7.966;2022-12-18T18:01:36;-0.50;99.90
15947;DHT22;8072;52.554;7.966;2022-12-18T18:04:03;-0.60;99.90
15947;DHT22;8072;52.554;7.966;2022-12-18T18:06:29;-0.60;99.90
15947;DHT22;8072;52.554;7.966;2022-12-18T18:08:54;-0.60;99.90
15947;DHT22;8072;52.554;7.966;2022-12-18T18:11:22;-0.50;99.90
15947;DHT22;8072;52.554;7.966;2022-12-18T18:14:14;-0.50;99.90
15947;DHT22;8072;52.554;7.966;2022-12-18T18:16:43;-0.50;99.90